Time;durP1;ratioP1;P1;durP2;ratioP2;P2;SDS_P1;SDS_P2;PMS_P1;PMS_P2;Temp;Humidity;BMP_temperature;BMP_pressure;BME280_temperature;BME280_humidity;BME280_pressure;Samples;Min_cycle;Max_cycle;Signal;HPM_P1;HPM_P2
2022/01/04 06:30:53;;;;;;;34.63;19.83;;;;;;;;;;6191287;23;20551;-93
2022/01/04 06:33:20;;;;;;;33.63;19.42;;;;;;;;;;6163881;23;20112;-89
2022/01/04 06:35:47;;;;;;;27.95;18.42;;;;;;;;;;6189979;23;20482;-93
2022/01/04 06:38:13;;;;;;;31.52;17.77;;;;;;;;;;6190270;23;20024;-94
2022/01/04 06:40:38;;;;;;;33.50;18.77;;;;;;;;;;6164892;23;20336;-90
2022/01/04 06:43:04;;;;;;;31.52;19.33;;;;;;;;;;6191216;23;20012;-92
2022/01/04 06:45:29;;;;;;;28.45;18.58;;;;;;;;;;6164543;23;20024;-90
2022/01/04 06:47:55;;;;;;;30.67;18.02;;;;;;;;;;6164068;23;20004;-89
2022/01/04 06:50:21;;;;;;;34.92;21.35;;;;;;;;;;6164447;23;20005;-89
2022/01/04 06:52:46;;;;;;;32.08;20.45;;;;;;;;;;6164527;23;20037;-92
2022/01/04 06:55:14;;;;;;;29.52;18.27;;;;;;;;;;6164386;23;20096;-96
2022/01/04 06:57:39;;;;;;;33.92;20.13;;;;;;;;;;6166369;23;20009;-92
2022/01/04 07:00:06;;;;;;;34.00;20.80;;;;;;;;;;6163987;23;20424;-92
2022/01/04 07:02:31;;;;;;;31.63;19.10;;;;;;;;;;6163815;23;20001;-92
2022/01/04 07:04:56;;;;;;;32.05;20.10;;;;;;;;;;6163188;23;20013;-89
2022/01/04 07:07:23;;;;;;;30.15;18.88;;;;;;;;;;6163444;23;20463;-89
2022/01/04 07:09:49;;;;;;;33.08;19.80;;;;;;;;;;6161777;23;20005;-90
2022/01/04 07:12:15;;;;;;;30.08;18.08;;;;;;;;;;6162676;23;20068;-89
2022/01/04 07:14:40;;;;;;;33.28;19.58;;;;;;;;;;6163190;23;20020;-92
2022/01/04 07:17:05;;;;;;;30.95;19.02;;;;;;;;;;6162944;23;20025;-89
2022/01/04 07:19:31;;;;;;;32.80;19.13;;;;;;;;;;6162843;23;20040;-89
2022/01/04 07:21:56;;;;;;;30.63;19.17;;;;;;;;;;6162666;23;20428;-89
2022/01/04 07:24:22;;;;;;;33.00;19.80;;;;;;;;;;6162214;23;20435;-91
2022/01/04 07:26:47;;;;;;;31.92;19.10;;;;;;;;;;6162609;23;20005;-90
2022/01/04 07:29:13;;;;;;;29.75;18.98;;;;;;;;;;6157421;23;20428;-91
2022/01/04 07:31:38;;;;;;;34.42;19.27;;;;;;;;;;6157921;23;20416;-87
2022/01/04 07:34:04;;;;;;;30.13;18.02;;;;;;;;;;6157684;23;20105;-84
2022/01/04 07:36:31;;;;;;;33.38;19.05;;;;;;;;;;6159305;23;20005;-87
2022/01/04 07:38:57;;;;;;;34.10;19.73;;;;;;;;;;6157998;23;20080;-87
2022/01/04 07:41:22;;;;;;;32.80;19.40;;;;;;;;;;6157413;23;20315;-91
2022/01/04 07:43:48;;;;;;;33.35;19.40;;;;;;;;;;6157692;23;20024;-82
2022/01/04 07:46:13;;;;;;;36.08;21.40;;;;;;;;;;6156947;23;20009;-85
2022/01/04 07:48:39;;;;;;;41.22;22.55;;;;;;;;;;6156808;23;20064;-84
2022/01/04 07:51:04;;;;;;;38.70;22.58;;;;;;;;;;6156779;23;20024;-84
2022/01/04 07:53:30;;;;;;;38.05;21.58;;;;;;;;;;6156304;23;20009;-84
2022/01/04 07:55:55;;;;;;;31.48;20.23;;;;;;;;;;6156228;23;20001;-84
2022/01/04 07:58:22;;;;;;;35.83;21.38;;;;;;;;;;6157363;23;20060;-83
2022/01/04 14:30:43;;;;;;;39.03;22.33;;;;;;;;;;6191653;23;20012;-84
2022/01/04 14:33:08;;;;;;;37.85;22.40;;;;;;;;;;6247529;23;20009;-85
2022/01/04 14:35:35;;;;;;;40.85;22.58;;;;;;;;;;6248006;23;20004;-85
2022/01/04 14:38:01;;;;;;;37.85;20.73;;;;;;;;;;6247861;23;20085;-85
2022/01/04 14:40:29;;;;;;;38.90;23.10;;;;;;;;;;6247641;23;20004;-86
2022/01/04 14:42:56;;;;;;;38.88;21.33;;;;;;;;;;6247845;23;20043;-85
2022/01/04 14:45:22;;;;;;;35.28;20.48;;;;;;;;;;6247874;23;20062;-84
2022/01/04 14:47:47;;;;;;;39.40;21.58;;;;;;;;;;6247147;23;20000;-83
2022/01/04 14:50:13;;;;;;;39.55;23.00;;;;;;;;;;6247715;23;20066;-83
2022/01/04 14:52:39;;;;;;;37.42;21.83;;;;;;;;;;6247692;23;19996;-83
2022/01/04 14:55:05;;;;;;;39.72;21.77;;;;;;;;;;6248040;23;20416;-84
2022/01/04 14:57:31;;;;;;;37.38;22.17;;;;;;;;;;6247617;23;20326;-83
2022/01/04 15:00:03;;;;;;;37.17;21.75;;;;;;;;;;6247686;23;20039;-84
2022/01/04 15:02:29;;;;;;;37.90;22.10;;;;;;;;;;6247324;23;20046;-83
2022/01/04 15:04:56;;;;;;;45.20;25.17;;;;;;;;;;6247654;23;20012;-85
2022/01/04 15:07:23;;;;;;;47.15;26.20;;;;;;;;;;6247132;23;20000;-84
2022/01/04 15:09:48;;;;;;;45.72;25.17;;;;;;;;;;6247465;23;20110;-88
2022/01/04 15:12:14;;;;;;;42.95;24.08;;;;;;;;;;6247599;23;20035;-85
2022/01/04 15:14:40;;;;;;;44.15;25.15;;;;;;;;;;6247408;23;20427;-84
2022/01/04 15:17:13;;;;;;;47.58;26.67;;;;;;;;;;6247418;23;20320;-83
2022/01/04 15:19:42;;;;;;;55.83;32.17;;;;;;;;;;6247652;23;20000;-84
2022/01/04 15:22:08;;;;;;;46.75;26.00;;;;;;;;;;6247521;23;20055;-84
2022/01/04 15:24:33;;;;;;;44.65;23.45;;;;;;;;;;6247950;23;20008;-84
2022/01/04 15:26:59;;;;;;;43.92;23.83;;;;;;;;;;6248080;23;20101;-83
2022/01/04 15:29:24;;;;;;;42.92;24.00;;;;;;;;;;6247346;23;20041;-86
2022/01/04 15:31:50;;;;;;;37.65;23.15;;;;;;;;;;6247424;23;20035;-86
2022/01/04 15:34:15;;;;;;;48.85;26.33;;;;;;;;;;6247751;23;20087;-84
2022/01/04 15:36:41;;;;;;;43.17;23.40;;;;;;;;;;6220822;23;20050;-85
2022/01/04 15:39:19;;;;;;;45.05;25.17;;;;;;;;;;6247534;23;20075;-84
2022/01/04 15:41:45;;;;;;;51.03;27.33;;;;;;;;;;6247107;23;20054;-86
2022/01/04 15:44:11;;;;;;;47.83;25.67;;;;;;;;;;6247168;23;20004;-84
2022/01/04 15:46:37;;;;;;;50.67;27.48;;;;;;;;;;6247168;23;20009;-83
2022/01/04 15:49:02;;;;;;;44.42;25.13;;;;;;;;;;6247241;23;20004;-84
2022/01/04 15:51:28;;;;;;;47.17;26.17;;;;;;;;;;6247223;23;20007;-83
2022/01/04 15:53:54;;;;;;;47.88;25.15;;;;;;;;;;6247054;23;20004;-86
2022/01/04 15:56:20;;;;;;;46.20;24.58;;;;;;;;;;6246891;23;20411;-86
2022/01/04 15:58:45;;;;;;;48.08;26.77;;;;;;;;;;6246910;23;20018;-83
2022/01/04 16:01:11;;;;;;;52.42;27.52;;;;;;;;;;6219594;23;20427;-83
2022/01/04 16:03:36;;;;;;;51.65;27.00;;;;;;;;;;6246593;23;20038;-83
2022/01/04 16:06:02;;;;;;;48.95;26.30;;;;;;;;;;6246919;23;20008;-82
2022/01/04 16:08:27;;;;;;;53.17;27.05;;;;;;;;;;6219729;23;20000;-84
2022/01/04 16:10:53;;;;;;;50.42;27.17;;;;;;;;;;6220130;23;20015;-84
2022/01/04 16:13:18;;;;;;;58.30;28.48;;;;;;;;;;6246698;23;20079;-83
2022/01/04 16:16:56;;;;;;;63.08;34.17;;;;;;;;;;6219761;23;20004;-85
2022/01/04 16:21:36;;;;;;;62.20;31.25;;;;;;;;;;6212053;23;20304;-85
2022/01/04 16:24:05;;;;;;;58.15;30.60;;;;;;;;;;6246939;23;20004;-85
2022/01/04 16:26:33;;;;;;;62.00;32.00;;;;;;;;;;6246547;23;20031;-83
2022/01/04 16:29:08;;;;;;;56.45;30.30;;;;;;;;;;6247187;23;20003;-83
2022/01/04 16:31:34;;;;;;;57.25;29.63;;;;;;;;;;6246686;23;20023;-83
2022/01/04 16:33:59;;;;;;;83.28;44.35;;;;;;;;;;6219451;23;20008;-85
2022/01/04 16:36:28;;;;;;;96.20;45.17;;;;;;;;;;6219527;23;20054;-83
2022/01/04 16:38:53;;;;;;;71.05;36.63;;;;;;;;;;6246349;23;19996;-83
2022/01/04 16:41:19;;;;;;;58.33;30.20;;;;;;;;;;6246511;23;20049;-83
2022/01/04 16:43:46;;;;;;;58.75;31.60;;;;;;;;;;6247007;23;20020;-83
2022/01/04 16:46:11;;;;;;;58.28;30.73;;;;;;;;;;6219458;23;20008;-83
2022/01/04 16:48:37;;;;;;;60.60;30.92;;;;;;;;;;6219775;23;20004;-84
2022/01/04 16:51:02;;;;;;;56.92;28.67;;;;;;;;;;6246568;23;20000;-83
2022/01/04 16:53:28;;;;;;;52.53;29.80;;;;;;;;;;6246708;23;20008;-83
2022/01/04 16:55:53;;;;;;;57.67;30.85;;;;;;;;;;6219529;23;20004;-83
2022/01/04 16:58:18;;;;;;;60.45;32.38;;;;;;;;;;6246422;23;20007;-83
2022/01/04 17:00:44;;;;;;;61.05;34.45;;;;;;;;;;6246493;23;20000;-83
2022/01/04 17:03:09;;;;;;;63.47;35.42;;;;;;;;;;6246342;23;20000;-83
2022/01/04 17:05:39;;;;;;;56.28;29.67;;;;;;;;;;6246317;23;20032;-84
2022/01/04 17:08:05;;;;;;;;;;;;;;;;;;6246922;23;20012;-83
2022/01/04 17:10:32;;;;;;;61.90;33.17;;;;;;;;;;6246329;23;19914;-83
2022/01/04 17:15:42;;;;;;;68.45;35.00;;;;;;;;;;6245692;23;20104;-83
2022/01/04 17:18:07;;;;;;;73.90;39.47;;;;;;;;;;6246502;23;20000;-82
2022/01/04 17:20:33;;;;;;;69.68;36.50;;;;;;;;;;6246654;23;20000;-83
2022/01/04 17:22:59;;;;;;;83.43;48.65;;;;;;;;;;6219467;23;20091;-83
2022/01/04 17:25:25;;;;;;;82.47;39.80;;;;;;;;;;6246461;23;20012;-82
2022/01/04 17:27:51;;;;;;;73.88;37.95;;;;;;;;;;6246466;23;20008;-84
2022/01/04 17:30:18;;;;;;;73.90;37.35;;;;;;;;;;6246063;23;20530;-83
2022/01/04 17:32:44;;;;;;;73.82;37.35;;;;;;;;;;6246290;23;20000;-83
2022/01/04 17:35:09;;;;;;;80.90;36.70;;;;;;;;;;6246144;23;20008;-83
2022/01/04 17:37:36;;;;;;;76.72;36.90;;;;;;;;;;6246470;23;20370;-83
2022/01/04 17:40:04;;;;;;;69.20;36.10;;;;;;;;;;6246218;23;20008;-83
2022/01/04 17:42:29;;;;;;;87.93;41.13;;;;;;;;;;6219455;23;19996;-83
2022/01/04 17:44:55;;;;;;;84.07;42.22;;;;;;;;;;6246264;23;20000;-84
2022/01/04 17:47:21;;;;;;;81.15;41.28;;;;;;;;;;6246130;23;20450;-83
2022/01/04 17:49:46;;;;;;;87.03;41.97;;;;;;;;;;6246029;23;20444;-84
2022/01/04 17:52:12;;;;;;;86.60;42.45;;;;;;;;;;6246418;23;20027;-84
2022/01/04 17:54:37;;;;;;;78.93;39.88;;;;;;;;;;6246325;23;20011;-83
2022/01/04 17:57:03;;;;;;;75.88;39.05;;;;;;;;;;6246043;23;20424;-84
2022/01/04 17:59:28;;;;;;;81.97;39.28;;;;;;;;;;6245846;23;20428;-84
2022/01/04 18:01:54;;;;;;;83.22;39.88;;;;;;;;;;6246356;23;20004;-83
2022/01/04 18:04:21;;;;;;;76.13;39.17;;;;;;;;;;6246081;23;20027;-83
2022/01/04 18:06:47;;;;;;;78.55;37.60;;;;;;;;;;6245861;23;20390;-83
2022/01/04 18:09:13;;;;;;;75.30;39.20;;;;;;;;;;6246248;23;20035;-83
2022/01/04 18:11:38;;;;;;;74.50;38.15;;;;;;;;;;6246211;23;20004;-84
2022/01/04 18:14:04;;;;;;;76.28;38.65;;;;;;;;;;6246610;23;20036;-84
2022/01/04 18:16:29;;;;;;;73.15;37.60;;;;;;;;;;6245753;23;20005;-83
2022/01/04 18:18:55;;;;;;;73.10;38.15;;;;;;;;;;6245915;23;20000;-84
2022/01/04 18:21:20;;;;;;;80.95;40.10;;;;;;;;;;6246542;23;20000;-84
2022/01/04 18:23:46;;;;;;;72.65;36.97;;;;;;;;;;6246200;23;20079;-83
2022/01/04 18:26:11;;;;;;;78.00;38.63;;;;;;;;;;6246195;23;20004;-83
2022/01/04 18:28:37;;;;;;;87.72;39.10;;;;;;;;;;6246178;23;20057;-83
2022/01/04 18:31:02;;;;;;;87.80;39.72;;;;;;;;;;6245850;23;20443;-83
2022/01/04 18:33:28;;;;;;;92.03;39.90;;;;;;;;;;6245819;23;20001;-84
2022/01/04 18:35:53;;;;;;;86.95;39.85;;;;;;;;;;6246157;23;20000;-83
2022/01/04 18:38:19;;;;;;;87.18;39.78;;;;;;;;;;6246425;23;20327;-85
2022/01/04 18:40:46;;;;;;;75.88;36.28;;;;;;;;;;6246153;23;20366;-83
2022/01/04 18:43:12;;;;;;;74.35;37.88;;;;;;;;;;6246023;23;20439;-83
2022/01/04 18:45:39;;;;;;;78.65;37.15;;;;;;;;;;6246076;23;20000;-83
2022/01/04 18:48:04;;;;;;;87.78;39.25;;;;;;;;;;6248215;23;20336;-84
2022/01/04 18:50:30;;;;;;;84.15;38.65;;;;;;;;;;6246307;23;20005;-83
2022/01/04 18:52:55;;;;;;;83.47;37.00;;;;;;;;;;6245918;23;20180;-83
2022/01/04 18:55:21;;;;;;;80.43;36.83;;;;;;;;;;6246134;23;20018;-85
2022/01/04 18:57:49;;;;;;;79.10;38.97;;;;;;;;;;6246712;23;20004;-83
2022/01/04 19:00:15;;;;;;;80.38;37.42;;;;;;;;;;6247553;23;20412;-86
2022/01/04 19:02:41;;;;;;;84.40;40.42;;;;;;;;;;6248082;23;20000;-82
2022/01/04 19:05:07;;;;;;;79.25;39.65;;;;;;;;;;6220986;23;20007;-83
2022/01/04 19:07:32;;;;;;;82.60;39.00;;;;;;;;;;6248665;23;20011;-83
2022/01/04 19:09:58;;;;;;;71.55;36.13;;;;;;;;;;6224205;23;20004;-84
2022/01/04 19:12:23;;;;;;;78.35;37.22;;;;;;;;;;6250512;23;19999;-83
2022/01/04 19:14:49;;;;;;;73.53;34.90;;;;;;;;;;6220715;23;20016;-83
2022/01/04 19:17:15;;;;;;;77.53;37.47;;;;;;;;;;6247530;23;20000;-83
2022/01/04 19:19:40;;;;;;;78.38;37.42;;;;;;;;;;6247195;23;20093;-83
2022/01/04 19:22:06;;;;;;;82.45;38.05;;;;;;;;;;6247708;23;20011;-84
2022/01/04 19:24:31;;;;;;;76.63;38.05;;;;;;;;;;6247523;23;20371;-83
2022/01/04 19:26:57;;;;;;;66.50;35.88;;;;;;;;;;6247402;23;20324;-83
2022/01/04 19:29:23;;;;;;;65.20;34.63;;;;;;;;;;6247478;23;20007;-83
2022/01/04 19:31:52;;;;;;;66.15;34.22;;;;;;;;;;6247266;23;20008;-83
2022/01/04 19:37:03;;;;;;;58.78;32.80;;;;;;;;;;6247208;23;20010;-83
2022/01/04 19:39:30;;;;;;;62.75;33.63;;;;;;;;;;6247406;23;20408;-82
2022/01/04 19:41:56;;;;;;;54.13;30.50;;;;;;;;;;6249097;23;20008;-82
2022/01/04 19:44:21;;;;;;;59.72;32.80;;;;;;;;;;6247590;23;20493;-82
2022/01/04 19:46:47;;;;;;;59.45;31.52;;;;;;;;;;6220378;23;20083;-82
2022/01/04 19:49:12;;;;;;;60.10;32.78;;;;;;;;;;6220586;23;20473;-83
2022/01/04 19:51:39;;;;;;;62.92;33.28;;;;;;;;;;6247376;23;20028;-83
2022/01/04 19:54:05;;;;;;;61.55;31.00;;;;;;;;;;6247162;23;20004;-84
2022/01/04 19:56:32;;;;;;;63.22;31.95;;;;;;;;;;6247569;23;20069;-84
2022/01/04 19:58:58;;;;;;;57.38;30.90;;;;;;;;;;6220434;23;20000;-83
2022/01/04 20:01:23;;;;;;;59.42;32.95;;;;;;;;;;6247288;23;20004;-84
2022/01/04 20:03:50;;;;;;;55.58;31.17;;;;;;;;;;6246250;23;20000;-84
2022/01/04 20:06:15;;;;;;;64.15;32.58;;;;;;;;;;6247069;23;20004;-83
2022/01/04 20:08:45;;;;;;;58.22;30.33;;;;;;;;;;6248875;23;20095;-83
2022/01/04 20:11:11;;;;;;;;;;;;;;;;;;6247380;23;20004;-82
2022/01/04 20:13:36;;;;;;;58.67;31.20;;;;;;;;;;6219600;23;19914;-82
2022/01/04 20:16:02;;;;;;;51.88;29.55;;;;;;;;;;6220935;23;20312;-83
2022/01/04 20:18:30;;;;;;;58.15;31.15;;;;;;;;;;6246880;23;20419;-83
2022/01/04 20:20:56;;;;;;;61.03;32.42;;;;;;;;;;6220079;23;20008;-82
2022/01/04 20:23:21;;;;;;;59.53;31.63;;;;;;;;;;6246868;23;20376;-83
2022/01/04 20:25:47;;;;;;;59.25;31.80;;;;;;;;;;6246612;23;20028;-83
2022/01/04 20:28:14;;;;;;;54.13;30.67;;;;;;;;;;6220197;23;20012;-84
2022/01/04 20:30:39;;;;;;;117.25;60.70;;;;;;;;;;6246591;23;20014;-84
2022/01/04 20:33:05;;;;;;;98.10;47.65;;;;;;;;;;6246888;23;20015;-84
2022/01/04 20:35:32;;;;;;;67.10;34.92;;;;;;;;;;6246559;23;20083;-86
2022/01/04 20:37:57;;;;;;;55.05;31.05;;;;;;;;;;6246608;23;20011;-84
2022/01/04 20:40:23;;;;;;;55.22;29.15;;;;;;;;;;6246644;23;20000;-84
2022/01/04 20:42:49;;;;;;;58.92;29.80;;;;;;;;;;6247114;23;20031;-85
2022/01/04 20:45:15;;;;;;;60.40;31.40;;;;;;;;;;6246907;23;20011;-84
2022/01/04 20:47:41;;;;;;;55.28;30.70;;;;;;;;;;6246491;23;20004;-86
2022/01/04 20:50:09;;;;;;;50.63;28.33;;;;;;;;;;6219722;23;20034;-83
2022/01/04 20:52:37;;;;;;;54.53;30.67;;;;;;;;;;6246756;23;20026;-84
2022/01/04 20:55:07;;;;;;;54.20;30.98;;;;;;;;;;6246483;23;20014;-84
2022/01/04 20:57:32;;;;;;;59.20;31.08;;;;;;;;;;6246321;23;20012;-86
2022/01/04 20:59:58;;;;;;;60.28;29.85;;;;;;;;;;6245622;23;20000;-84
2022/01/04 21:02:24;;;;;;;59.72;32.38;;;;;;;;;;6246507;23;20328;-83
2022/01/04 21:04:49;;;;;;;64.20;32.80;;;;;;;;;;6219672;23;20007;-83
2022/01/04 21:07:14;;;;;;;57.53;30.17;;;;;;;;;;6219553;23;20412;-83
2022/01/04 21:09:40;;;;;;;59.50;31.65;;;;;;;;;;6246339;23;20419;-83
2022/01/04 21:12:06;;;;;;;57.28;29.38;;;;;;;;;;6219738;23;19996;-83
2022/01/04 21:14:32;;;;;;;65.60;35.17;;;;;;;;;;6246486;23;20431;-83
2022/01/04 21:16:57;;;;;;;60.05;32.88;;;;;;;;;;6246392;23;20432;-84
2022/01/04 21:19:23;;;;;;;62.67;33.95;;;;;;;;;;6246587;23;20327;-84
2022/01/04 21:21:48;;;;;;;65.30;35.13;;;;;;;;;;6246255;23;20047;-83
2022/01/04 21:24:13;;;;;;;59.50;31.27;;;;;;;;;;6246463;23;20031;-83
2022/01/04 21:26:39;;;;;;;64.82;32.00;;;;;;;;;;6246079;23;20004;-84
2022/01/04 21:29:06;;;;;;;63.40;31.67;;;;;;;;;;6219628;23;20031;-83
2022/01/04 21:31:32;;;;;;;61.65;32.30;;;;;;;;;;6246466;23;20008;-84
2022/01/04 21:33:59;;;;;;;60.67;33.03;;;;;;;;;;6246272;23;20095;-84
2022/01/04 21:36:24;;;;;;;58.50;31.88;;;;;;;;;;6246343;23;20004;-84
2022/01/04 21:38:50;;;;;;;58.30;31.83;;;;;;;;;;6246308;23;20486;-84
2022/01/04 21:41:15;;;;;;;54.85;29.95;;;;;;;;;;6246504;23;20004;-83
2022/01/04 21:43:41;;;;;;;51.38;29.42;;;;;;;;;;6246332;23;20011;-84
2022/01/04 21:46:06;;;;;;;58.03;29.58;;;;;;;;;;6246490;23;20107;-84
2022/01/04 21:48:37;;;;;;;55.28;28.02;;;;;;;;;;6246603;23;20000;-83
2022/01/04 21:51:02;;;;;;;51.17;28.70;;;;;;;;;;6218868;23;20057;-84
2022/01/04 21:53:28;;;;;;;54.88;30.30;;;;;;;;;;6246130;23;20024;-84
2022/01/04 21:55:53;;;;;;;49.92;27.70;;;;;;;;;;6246793;23;20420;-84
2022/01/04 21:58:18;;;;;;;56.17;29.52;;;;;;;;;;6246598;23;20030;-84
2022/01/04 22:00:44;;;;;;;55.63;30.17;;;;;;;;;;6246434;23;20367;-84
2022/01/04 22:03:09;;;;;;;62.03;31.42;;;;;;;;;;6219424;23;20075;-85
2022/01/04 22:05:35;;;;;;;56.05;29.55;;;;;;;;;;6246317;23;20000;-84
2022/01/04 22:08:01;;;;;;;59.95;31.55;;;;;;;;;;6246267;23;20075;-85
2022/01/04 22:10:26;;;;;;;63.13;32.63;;;;;;;;;;6246279;23;20015;-84
2022/01/04 22:12:52;;;;;;;59.78;31.77;;;;;;;;;;6246346;23;20004;-84
2022/01/04 22:15:18;;;;;;;49.92;28.38;;;;;;;;;;6246317;23;20004;-84
2022/01/04 22:17:43;;;;;;;53.13;29.70;;;;;;;;;;6246248;23;20312;-84
2022/01/04 22:20:09;;;;;;;56.97;32.63;;;;;;;;;;6219291;23;20004;-85
2022/01/04 22:22:35;;;;;;;122.22;62.45;;;;;;;;;;6219615;23;20003;-84
2022/01/04 22:25:02;;;;;;;113.28;55.92;;;;;;;;;;6246316;23;20008;-84
2022/01/04 22:27:27;;;;;;;69.68;37.38;;;;;;;;;;6245979;23;20007;-84
2022/01/04 22:29:55;;;;;;;57.22;31.38;;;;;;;;;;6219308;23;20004;-84
2022/01/04 22:32:21;;;;;;;60.03;32.88;;;;;;;;;;6246307;23;20039;-83
2022/01/04 22:34:46;;;;;;;85.93;41.70;;;;;;;;;;6221246;23;20008;-84
2022/01/04 22:37:15;;;;;;;61.75;30.65;;;;;;;;;;6247871;23;20827;-84
2022/01/04 22:39:42;;;;;;;55.95;30.05;;;;;;;;;;6248128;23;20030;-84
2022/01/04 22:42:08;;;;;;;67.07;37.00;;;;;;;;;;6248108;23;20079;-84
2022/01/04 22:44:34;;;;;;;54.38;30.92;;;;;;;;;;6248216;23;20032;-84
2022/01/04 22:47:01;;;;;;;60.15;30.63;;;;;;;;;;6247848;23;20050;-83
2022/01/04 22:49:27;;;;;;;61.25;31.75;;;;;;;;;;6221092;23;20019;-83
2022/01/04 22:51:52;;;;;;;57.00;30.83;;;;;;;;;;6248208;23;20067;-84
2022/01/04 22:54:18;;;;;;;56.75;29.65;;;;;;;;;;6247904;23;20042;-83
2022/01/04 22:56:44;;;;;;;58.13;30.52;;;;;;;;;;6247750;23;20491;-82
2022/01/04 22:59:09;;;;;;;54.25;28.48;;;;;;;;;;6247776;23;20008;-84
2022/01/04 23:01:35;;;;;;;60.38;30.92;;;;;;;;;;6247822;23;20332;-84
2022/01/04 23:04:01;;;;;;;55.30;28.95;;;;;;;;;;6247858;23;20000;-84
2022/01/04 23:06:28;;;;;;;57.80;29.60;;;;;;;;;;6247749;23;20035;-84
2022/01/04 23:08:54;;;;;;;58.20;29.75;;;;;;;;;;6247990;23;20088;-84
2022/01/04 23:11:19;;;;;;;56.78;30.25;;;;;;;;;;6247844;23;20319;-84
2022/01/04 23:13:45;;;;;;;54.28;28.65;;;;;;;;;;6247575;23;20087;-84
2022/01/04 23:16:11;;;;;;;50.78;26.88;;;;;;;;;;6247761;23;20079;-84
2022/01/04 23:18:36;;;;;;;49.88;28.25;;;;;;;;;;6247671;23;20026;-84
2022/01/04 23:21:03;;;;;;;51.80;27.15;;;;;;;;;;6247701;23;20420;-84
2022/01/04 23:23:28;;;;;;;58.92;31.90;;;;;;;;;;6247600;23;20004;-84
2022/01/04 23:25:54;;;;;;;54.95;28.17;;;;;;;;;;6248038;23;20419;-84
2022/01/04 23:28:19;;;;;;;52.78;29.42;;;;;;;;;;6248128;23;20008;-84
2022/01/04 23:30:45;;;;;;;50.10;28.02;;;;;;;;;;6247369;23;20036;-84
2022/01/04 23:33:10;;;;;;;51.25;26.95;;;;;;;;;;6247527;23;20008;-84
2022/01/04 23:35:35;;;;;;;49.58;25.80;;;;;;;;;;6220756;23;20012;-84
2022/01/04 23:38:03;;;;;;;51.10;26.38;;;;;;;;;;6247607;23;20336;-84
2022/01/04 23:40:29;;;;;;;50.80;26.95;;;;;;;;;;6248987;23;20005;-84
2022/01/04 23:42:54;;;;;;;48.75;25.27;;;;;;;;;;6247337;23;20007;-85
2022/01/04 23:45:20;;;;;;;44.65;24.42;;;;;;;;;;6246497;23;20004;-83
